createdAt,value
2019-01-05T00:00:59.980Z,1008.30
2019-01-05T00:02:21.007Z,1008.32
2019-01-05T00:02:59.961Z,1008.30
2019-01-05T00:03:59.961Z,1008.34
2019-01-05T00:04:59.945Z,1008.33
2019-01-05T00:05:59.933Z,1008.28
2019-01-05T00:06:59.921Z,1008.30
2019-01-05T00:08:20.918Z,1008.32
2019-01-05T00:08:59.908Z,1008.25
2019-01-05T00:09:59.897Z,1008.21
2019-01-05T00:10:59.882Z,1008.25
2019-01-05T00:11:59.872Z,1008.27
2019-01-05T00:12:59.870Z,1008.25
2019-01-05T00:14:20.868Z,1008.17
2019-01-05T00:14:59.862Z,1008.21
2019-01-05T00:15:59.848Z,1008.27
2019-01-05T00:16:59.840Z,1008.16
2019-01-05T00:17:59.822Z,1008.16
2019-01-05T00:18:59.818Z,1008.27
2019-01-05T00:20:20.897Z,1008.21
2019-01-05T00:20:59.810Z,1008.13
2019-01-05T00:21:59.789Z,1008.14
2019-01-05T00:22:59.785Z,1008.16
2019-01-05T00:23:59.796Z,1008.12
2019-01-05T00:24:59.758Z,1008.04
2019-01-05T00:26:20.757Z,1008.07
2019-01-05T00:26:59.742Z,1008.00
2019-01-05T00:27:59.733Z,1007.97
2019-01-05T00:28:59.727Z,1007.99
2019-01-05T00:29:59.712Z,1008.04
2019-01-05T00:30:59.705Z,1008.05
2019-01-05T00:32:20.706Z,1008.00
2019-01-05T00:32:59.690Z,1008.07
2019-01-05T00:34:00.758Z,1008.06
2019-01-05T00:34:59.670Z,1008.03
2019-01-05T00:35:59.660Z,1008.00
2019-01-05T00:36:59.657Z,1007.99
2019-01-05T00:38:20.650Z,1007.99
2019-01-05T00:38:59.639Z,1007.97
2019-01-05T00:39:59.739Z,1008.00
2019-01-05T00:40:59.616Z,1008.03
2019-01-05T00:41:59.612Z,1007.98
2019-01-05T00:42:59.605Z,1008.01
2019-01-05T00:44:20.597Z,1007.99
2019-01-05T00:44:59.583Z,1007.95
2019-01-05T00:45:59.580Z,1007.96
2019-01-05T00:46:59.574Z,1007.92
2019-01-05T00:47:59.559Z,1007.95
2019-01-05T00:48:59.553Z,1007.97
2019-01-05T00:50:20.593Z,1007.93
2019-01-05T00:50:59.537Z,1007.92
2019-01-05T00:51:59.526Z,1007.94
2019-01-05T00:52:59.530Z,1007.98
2019-01-05T00:53:59.508Z,1008.00
2019-01-05T00:54:59.528Z,1007.89
2019-01-05T00:56:20.494Z,1007.87
2019-01-05T00:56:59.485Z,1007.82
2019-01-05T00:57:59.472Z,1007.87
2019-01-05T00:58:59.466Z,1007.80
2019-01-05T00:59:59.454Z,1007.91
2019-01-05T01:00:59.461Z,1007.76
2019-01-05T01:02:20.445Z,1007.75
2019-01-05T01:02:59.432Z,1007.73
2019-01-05T01:03:59.422Z,1007.74
2019-01-05T01:04:59.412Z,1007.71
2019-01-05T01:05:59.409Z,1007.76
2019-01-05T01:06:59.397Z,1007.70
2019-01-05T01:08:20.387Z,1007.74
2019-01-05T01:08:59.376Z,1007.75
2019-01-05T01:09:59.370Z,1007.73
2019-01-05T01:10:59.363Z,1007.74
2019-01-05T01:11:59.350Z,1007.64
2019-01-05T01:12:59.350Z,1007.78
2019-01-05T01:14:20.343Z,1007.59
2019-01-05T01:14:59.323Z,1007.65
2019-01-05T01:15:59.321Z,1007.60
2019-01-05T01:16:59.310Z,1007.68
2019-01-05T01:17:59.309Z,1007.64
2019-01-05T01:18:59.296Z,1007.68
2019-01-05T01:20:20.386Z,1007.60
2019-01-05T01:20:59.281Z,1007.60
2019-01-05T01:21:59.270Z,1007.53
2019-01-05T01:22:59.257Z,1007.57
2019-01-05T01:23:59.247Z,1007.45
2019-01-05T01:24:59.241Z,1007.50
2019-01-05T01:26:20.237Z,1007.43
2019-01-05T01:26:59.231Z,1007.47
2019-01-05T01:27:59.233Z,1007.44
2019-01-05T01:28:59.204Z,1007.46
2019-01-05T01:29:59.247Z,1007.33
2019-01-05T01:30:59.222Z,1007.44
2019-01-05T01:32:20.187Z,1007.46
2019-01-05T01:32:59.172Z,1007.35
2019-01-05T01:33:59.165Z,1007.37
2019-01-05T01:34:59.156Z,1007.50
2019-01-05T01:35:59.150Z,1007.45
2019-01-05T01:36:59.136Z,1007.36
2019-01-05T01:38:20.133Z,1007.27
2019-01-05T01:38:59.120Z,1007.31
2019-01-05T01:39:59.113Z,1007.22
2019-01-05T01:40:59.102Z,1007.25
2019-01-05T01:41:59.093Z,1007.23
2019-01-05T01:42:59.089Z,1007.19
2019-01-05T01:44:20.081Z,1007.18
2019-01-05T01:44:59.068Z,1007.12
2019-01-05T01:45:59.058Z,1007.11
2019-01-05T01:46:59.057Z,1007.13
2019-01-05T01:47:59.044Z,1007.21
2019-01-05T01:48:59.033Z,1007.07
2019-01-05T01:50:20.076Z,1007.10
2019-01-05T01:50:59.016Z,1007.02
2019-01-05T01:51:59.012Z,1007.02
2019-01-05T01:52:59.002Z,1006.98
2019-01-05T01:53:59.003Z,1006.95
2019-01-05T01:54:58.988Z,1006.99
2019-01-05T01:56:20.014Z,1006.92
2019-01-05T01:56:58.986Z,1006.95
2019-01-05T01:57:58.959Z,1006.88
2019-01-05T01:58:58.951Z,1006.87
2019-01-05T01:59:58.939Z,1006.78
2019-01-05T02:00:58.929Z,1006.80
2019-01-05T02:02:19.931Z,1006.77
2019-01-05T02:02:58.912Z,1006.85
2019-01-05T02:03:58.923Z,1006.77
2019-01-05T02:04:58.894Z,1006.82
2019-01-05T02:05:58.888Z,1006.78
2019-01-05T02:06:58.878Z,1006.65
2019-01-05T02:08:19.872Z,1006.68
2019-01-05T02:08:58.883Z,1006.69
2019-01-05T02:09:58.853Z,1006.67
2019-01-05T02:10:58.845Z,1006.64
2019-01-05T02:11:58.838Z,1006.68
2019-01-05T02:12:58.831Z,1006.57
2019-01-05T02:14:19.825Z,1006.57
2019-01-05T02:14:58.808Z,1006.50
2019-01-05T02:15:58.802Z,1006.53
2019-01-05T02:16:58.795Z,1006.46
2019-01-05T02:17:58.780Z,1006.54
2019-01-05T02:18:58.782Z,1006.48
2019-01-05T02:20:19.878Z,1006.42
2019-01-05T02:20:58.760Z,1006.39
2019-01-05T02:21:58.755Z,1006.51
2019-01-05T02:22:58.738Z,1006.54
2019-01-05T02:23:58.732Z,1006.41
2019-01-05T02:24:58.722Z,1006.42
2019-01-05T02:26:19.718Z,1006.44
2019-01-05T02:26:58.708Z,1006.42
2019-01-05T02:27:58.699Z,1006.41
2019-01-05T02:28:58.687Z,1006.38
2019-01-05T02:29:58.677Z,1006.32
2019-01-05T02:30:58.673Z,1006.35
2019-01-05T02:32:19.668Z,1006.34
2019-01-05T02:32:58.655Z,1006.31
2019-01-05T02:33:58.648Z,1006.35
2019-01-05T02:34:58.638Z,1006.33
2019-01-05T02:35:58.628Z,1006.33
2019-01-05T02:36:58.617Z,1006.36
2019-01-05T02:38:19.614Z,1006.28
2019-01-05T02:38:58.605Z,1006.20
2019-01-05T02:39:58.589Z,1006.20
2019-01-05T02:40:58.583Z,1006.32
2019-01-05T02:41:58.577Z,1006.16
2019-01-05T02:42:58.565Z,1006.12
2019-01-05T02:44:19.563Z,1006.06
2019-01-05T02:44:58.547Z,1006.07
2019-01-05T02:45:58.541Z,1005.99
2019-01-05T02:46:58.532Z,1006.05
2019-01-05T02:47:58.524Z,1005.94
2019-01-05T02:48:58.518Z,1005.95
2019-01-05T02:50:19.566Z,1006.03
2019-01-05T02:50:58.505Z,1005.99
2019-01-05T02:51:58.489Z,1005.97
2019-01-05T02:52:58.480Z,1005.95
2019-01-05T02:53:58.470Z,1006.02
2019-01-05T02:54:58.468Z,1006.00
2019-01-05T02:56:19.460Z,1005.97
2019-01-05T02:56:58.446Z,1005.93
2019-01-05T02:57:58.438Z,1005.87
2019-01-05T02:58:58.428Z,1005.93
2019-01-05T02:59:58.422Z,1005.85
2019-01-05T03:00:58.412Z,1005.94
2019-01-05T03:02:19.412Z,1005.81
2019-01-05T03:02:58.402Z,1005.80
2019-01-05T03:03:58.385Z,1005.86
2019-01-05T03:04:58.378Z,1005.79
2019-01-05T03:05:58.369Z,1005.88
2019-01-05T03:06:58.372Z,1005.80
2019-01-05T03:08:19.355Z,1005.72
2019-01-05T03:08:58.341Z,1005.70
2019-01-05T03:09:58.403Z,1005.65
2019-01-05T03:10:58.324Z,1005.63
2019-01-05T03:11:58.317Z,1005.64
2019-01-05T03:12:58.308Z,1005.59
2019-01-05T03:14:19.307Z,1005.51
2019-01-05T03:14:58.293Z,1005.50
2019-01-05T03:15:58.299Z,1005.48
2019-01-05T03:16:58.278Z,1005.51
2019-01-05T03:17:58.265Z,1005.46
2019-01-05T03:18:58.258Z,1005.47
2019-01-05T03:20:19.363Z,1005.43
2019-01-05T03:20:58.237Z,1005.49
2019-01-05T03:21:58.229Z,1005.50
2019-01-05T03:22:58.222Z,1005.42
2019-01-05T03:23:58.213Z,1005.46
2019-01-05T03:24:58.201Z,1005.42
2019-01-05T03:26:19.200Z,1005.42
2019-01-05T03:26:58.183Z,1005.28
2019-01-05T03:27:58.176Z,1005.40
2019-01-05T03:28:58.167Z,1005.36
2019-01-05T03:29:58.166Z,1005.28
2019-01-05T03:30:58.152Z,1005.37
2019-01-05T03:32:19.147Z,1005.25
2019-01-05T03:32:58.135Z,1005.35
2019-01-05T03:33:58.129Z,1005.24
2019-01-05T03:34:58.117Z,1005.26
2019-01-05T03:35:58.112Z,1005.20
2019-01-05T03:36:58.098Z,1005.23
2019-01-05T03:38:19.108Z,1005.26
2019-01-05T03:38:58.088Z,1005.19
2019-01-05T03:39:58.071Z,1005.17
2019-01-05T03:40:58.063Z,1005.19
2019-01-05T03:41:58.053Z,1005.17
2019-01-05T03:42:58.045Z,1005.24
2019-01-05T03:44:19.040Z,1005.12
2019-01-05T03:44:58.027Z,1005.11
2019-01-05T03:45:58.018Z,1005.19
2019-01-05T03:46:58.013Z,1005.21
2019-01-05T03:47:57.997Z,1005.23
2019-01-05T03:48:57.990Z,1005.17
2019-01-05T03:50:19.068Z,1005.19
2019-01-05T03:50:57.974Z,1005.18
2019-01-05T03:51:58.003Z,1005.14
2019-01-05T03:52:57.955Z,1005.16
2019-01-05T03:53:57.947Z,1005.14
2019-01-05T03:54:57.938Z,1005.09
2019-01-05T03:56:18.940Z,1005.08
2019-01-05T03:56:57.947Z,1005.09
2019-01-05T03:57:57.910Z,1004.99
2019-01-05T03:58:57.900Z,1004.96
2019-01-05T03:59:57.896Z,1004.98
2019-01-05T04:00:57.894Z,1004.95
2019-01-05T04:02:18.878Z,1004.96
2019-01-05T04:02:57.870Z,1005.00
2019-01-05T04:03:57.858Z,1004.90
2019-01-05T04:04:57.852Z,1004.90
2019-01-05T04:05:57.841Z,1004.92
2019-01-05T04:06:57.830Z,1004.93
2019-01-05T04:08:18.830Z,1004.84
2019-01-05T04:08:57.818Z,1004.85
2019-01-05T04:09:57.802Z,1004.75
2019-01-05T04:10:57.796Z,1004.85
2019-01-05T04:11:57.786Z,1004.85
2019-01-05T04:12:57.779Z,1004.79
2019-01-05T04:14:18.773Z,1004.69
2019-01-05T04:14:57.759Z,1004.72
2019-01-05T04:15:57.753Z,1004.66
2019-01-05T04:16:57.749Z,1004.73
2019-01-05T04:17:57.732Z,1004.65
2019-01-05T04:18:57.722Z,1004.64
2019-01-05T04:20:18.749Z,1004.66
2019-01-05T04:20:57.707Z,1004.60
2019-01-05T04:21:57.696Z,1004.69
2019-01-05T04:22:57.691Z,1004.69
2019-01-05T04:23:57.678Z,1004.60
2019-01-05T04:24:57.672Z,1004.63
2019-01-05T04:26:18.668Z,1004.72
2019-01-05T04:26:57.656Z,1004.69
2019-01-05T04:27:57.642Z,1004.62
2019-01-05T04:28:57.634Z,1004.57
2019-01-05T04:29:57.633Z,1004.56
2019-01-05T04:30:57.621Z,1004.60
2019-01-05T04:32:18.613Z,1004.59
2019-01-05T04:32:57.599Z,1004.56
2019-01-05T04:33:57.598Z,1004.57
2019-01-05T04:34:57.589Z,1004.49
2019-01-05T04:35:57.589Z,1004.62
2019-01-05T04:36:57.563Z,1004.59
2019-01-05T04:38:18.561Z,1004.45
2019-01-05T04:38:57.545Z,1004.55
2019-01-05T04:39:57.535Z,1004.55
2019-01-05T04:40:57.534Z,1004.53
2019-01-05T04:41:57.519Z,1004.50
2019-01-05T04:42:57.511Z,1004.54
2019-01-05T04:44:18.505Z,1004.43
2019-01-05T04:44:57.490Z,1004.38
2019-01-05T04:45:57.482Z,1004.34
2019-01-05T04:46:57.476Z,1004.42
2019-01-05T04:47:57.463Z,1004.41
2019-01-05T04:48:57.455Z,1004.30
2019-01-05T04:50:18.543Z,1004.28
2019-01-05T04:50:57.441Z,1004.23
2019-01-05T04:51:57.427Z,1004.27
2019-01-05T04:52:57.424Z,1004.27
2019-01-05T04:53:57.418Z,1004.19
2019-01-05T04:54:57.407Z,1004.14
2019-01-05T04:56:18.413Z,1004.18
2019-01-05T04:56:57.387Z,1004.16
2019-01-05T04:57:57.376Z,1004.14
2019-01-05T04:58:57.369Z,1004.09
2019-01-05T04:59:57.357Z,1004.10
2019-01-05T05:00:57.350Z,1004.07
2019-01-05T05:02:18.347Z,1004.16
2019-01-05T05:02:57.342Z,1004.05
2019-01-05T05:03:57.323Z,1004.05
2019-01-05T05:04:57.312Z,1004.06
2019-01-05T05:05:57.305Z,1004.06
2019-01-05T05:06:57.297Z,1003.98
2019-01-05T05:08:18.290Z,1003.97
2019-01-05T05:08:57.280Z,1003.93
2019-01-05T05:09:57.268Z,1003.97
2019-01-05T05:10:57.260Z,1003.98
2019-01-05T05:11:57.259Z,1003.96
2019-01-05T05:12:57.244Z,1003.99
2019-01-05T05:14:18.243Z,1003.98
2019-01-05T05:14:57.222Z,1003.92
2019-01-05T05:15:57.220Z,1004.00
2019-01-05T05:16:57.210Z,1003.99
2019-01-05T05:17:57.199Z,1004.07
2019-01-05T05:18:57.202Z,1004.02
2019-01-05T05:20:18.235Z,1003.94
2019-01-05T05:20:57.170Z,1003.96
2019-01-05T05:21:57.169Z,1003.98
2019-01-05T05:22:57.152Z,1003.90
2019-01-05T05:23:57.142Z,1003.95
2019-01-05T05:24:57.140Z,1003.90
2019-01-05T05:26:18.134Z,1003.93
2019-01-05T05:26:57.118Z,1003.88
2019-01-05T05:27:57.107Z,1003.81
2019-01-05T05:28:57.099Z,1003.87
2019-01-05T05:29:57.092Z,1003.86
2019-01-05T05:30:57.099Z,1003.84
2019-01-05T05:32:18.074Z,1003.82
2019-01-05T05:32:57.062Z,1003.84
2019-01-05T05:33:57.053Z,1003.80
2019-01-05T05:34:57.045Z,1003.74
2019-01-05T05:35:57.040Z,1003.70
2019-01-05T05:36:57.025Z,1003.75
2019-01-05T05:38:18.024Z,1003.73
2019-01-05T05:38:57.012Z,1003.74
2019-01-05T05:39:56.999Z,1003.70
2019-01-05T05:40:56.998Z,1003.75
2019-01-05T05:41:56.983Z,1003.65
2019-01-05T05:42:56.976Z,1003.70
2019-01-05T05:44:17.973Z,1003.68
2019-01-05T05:44:56.953Z,1003.60
2019-01-05T05:45:56.948Z,1003.57
2019-01-05T05:46:56.942Z,1003.57
2019-01-05T05:47:56.928Z,1003.54
2019-01-05T05:48:56.922Z,1003.54
2019-01-05T05:50:18.026Z,1003.57
2019-01-05T05:50:56.902Z,1003.42
2019-01-05T05:51:56.895Z,1003.52
2019-01-05T05:52:56.891Z,1003.39
2019-01-05T05:53:56.877Z,1003.47
2019-01-05T05:54:56.866Z,1003.53
2019-01-05T05:56:17.864Z,1003.52
2019-01-05T05:56:56.850Z,1003.53
2019-01-05T05:57:56.840Z,1003.59
2019-01-05T05:58:56.831Z,1003.59
2019-01-05T05:59:56.860Z,1003.62
2019-01-05T06:00:56.814Z,1003.65
2019-01-05T06:02:17.809Z,1003.57
2019-01-05T06:02:56.793Z,1003.56
2019-01-05T06:03:56.787Z,1003.61
2019-01-05T06:04:56.778Z,1003.53
2019-01-05T06:05:56.783Z,1003.56
2019-01-05T06:06:56.759Z,1003.57
2019-01-05T06:08:17.754Z,1003.62
2019-01-05T06:08:56.742Z,1003.64
2019-01-05T06:09:56.733Z,1003.63
2019-01-05T06:10:56.722Z,1003.74
2019-01-05T06:11:56.714Z,1003.76
2019-01-05T06:12:56.704Z,1003.77
2019-01-05T06:14:17.702Z,1003.73
2019-01-05T06:14:56.688Z,1003.67
2019-01-05T06:15:56.680Z,1003.69
2019-01-05T06:16:56.675Z,1003.69
2019-01-05T06:17:56.659Z,1003.74
2019-01-05T06:18:56.651Z,1003.74
2019-01-05T06:20:17.723Z,1003.78
2019-01-05T06:20:56.635Z,1003.80
2019-01-05T06:21:56.628Z,1003.78
2019-01-05T06:22:56.624Z,1003.77
2019-01-05T06:23:56.610Z,1003.77
2019-01-05T06:24:56.598Z,1003.78
2019-01-05T06:26:17.597Z,1003.75
2019-01-05T06:26:56.583Z,1003.78
2019-01-05T06:27:56.574Z,1003.72
2019-01-05T06:28:56.565Z,1003.78
2019-01-05T06:29:56.552Z,1003.84
2019-01-05T06:30:56.545Z,1003.79
2019-01-05T06:32:17.547Z,1003.82
2019-01-05T06:32:56.526Z,1003.82
2019-01-05T06:33:56.519Z,1003.87
2019-01-05T06:34:56.509Z,1003.84
2019-01-05T06:35:56.498Z,1003.83
2019-01-05T06:36:56.493Z,1003.86
2019-01-05T06:38:17.491Z,1003.88
2019-01-05T06:38:56.474Z,1003.88
2019-01-05T06:39:56.468Z,1003.79
2019-01-05T06:40:56.457Z,1003.83
2019-01-05T06:41:56.447Z,1003.80
2019-01-05T06:42:56.440Z,1003.73
2019-01-05T06:44:17.436Z,1003.76
2019-01-05T06:44:56.420Z,1003.69
2019-01-05T06:45:56.412Z,1003.69
2019-01-05T06:46:56.408Z,1003.73
2019-01-05T06:47:56.396Z,1003.73
2019-01-05T06:48:56.406Z,1003.68
2019-01-05T06:50:17.420Z,1003.81
2019-01-05T06:50:56.379Z,1003.67
2019-01-05T06:51:56.367Z,1003.72
2019-01-05T06:52:56.355Z,1003.67
2019-01-05T06:53:56.345Z,1003.71
2019-01-05T06:54:56.342Z,1003.64
2019-01-05T06:56:17.330Z,1003.66
2019-01-05T06:56:56.319Z,1003.68
2019-01-05T06:57:56.367Z,1003.69
2019-01-05T06:58:56.303Z,1003.74
2019-01-05T06:59:56.293Z,1003.77
2019-01-05T07:00:56.283Z,1003.74
2019-01-05T07:02:17.281Z,1003.72
2019-01-05T07:02:56.267Z,1003.73
2019-01-05T07:03:56.256Z,1003.76
2019-01-05T07:04:56.283Z,1003.76
2019-01-05T07:05:56.239Z,1003.79
2019-01-05T07:06:56.231Z,1003.80
2019-01-05T07:08:17.227Z,1003.80
2019-01-05T07:08:56.212Z,1003.79
2019-01-05T07:09:56.209Z,1003.79
2019-01-05T07:10:56.196Z,1003.75
2019-01-05T07:11:56.186Z,1003.76
2019-01-05T07:12:56.176Z,1003.75
2019-01-05T07:14:17.176Z,1003.83
2019-01-05T07:14:56.167Z,1003.81
2019-01-05T07:15:56.152Z,1003.86
2019-01-05T07:16:56.142Z,1003.85
2019-01-05T07:17:56.135Z,1003.87
2019-01-05T07:18:56.126Z,1003.80
2019-01-05T07:20:17.209Z,1003.85
2019-01-05T07:20:56.121Z,1003.88
2019-01-05T07:21:56.098Z,1003.89
2019-01-05T07:22:56.089Z,1003.83
2019-01-05T07:23:56.080Z,1003.88
2019-01-05T07:24:56.074Z,1003.79
2019-01-05T07:26:17.070Z,1003.78
2019-01-05T07:26:56.055Z,1003.81
2019-01-05T07:27:56.045Z,1003.80
2019-01-05T07:28:56.035Z,1003.84
2019-01-05T07:29:56.035Z,1003.82
2019-01-05T07:30:56.023Z,1003.87
2019-01-05T07:32:17.018Z,1003.89
2019-01-05T07:32:56.003Z,1003.84
2019-01-05T07:33:55.992Z,1003.93
2019-01-05T07:34:55.988Z,1003.83
2019-01-05T07:35:55.987Z,1003.88
2019-01-05T07:36:55.973Z,1003.79
2019-01-05T07:38:16.963Z,1003.77
2019-01-05T07:38:55.951Z,1003.81
2019-01-05T07:39:55.942Z,1003.75
2019-01-05T07:40:55.933Z,1003.72
2019-01-05T07:41:55.930Z,1003.79
2019-01-05T07:42:55.916Z,1003.85
2019-01-05T07:44:16.919Z,1003.81
2019-01-05T07:44:55.900Z,1003.86
2019-01-05T07:45:55.891Z,1003.96
2019-01-05T07:46:55.882Z,1003.88
2019-01-05T07:47:55.872Z,1003.91
2019-01-05T07:48:55.861Z,1003.97
2019-01-05T07:50:16.898Z,1003.95
2019-01-05T07:50:55.847Z,1004.05
2019-01-05T07:51:55.834Z,1003.99
2019-01-05T07:52:55.828Z,1003.93
2019-01-05T07:53:55.820Z,1003.92
2019-01-05T07:54:55.812Z,1004.00
2019-01-05T07:56:16.808Z,1003.99
2019-01-05T07:56:55.795Z,1004.01
2019-01-05T07:57:55.784Z,1003.92
2019-01-05T07:58:55.777Z,1003.91
2019-01-05T07:59:55.774Z,1003.93
2019-01-05T08:00:55.761Z,1003.94
2019-01-05T08:02:16.803Z,1003.95
2019-01-05T08:02:55.741Z,1003.96
2019-01-05T08:03:55.733Z,1004.02
2019-01-05T08:04:55.726Z,1003.98
2019-01-05T08:05:55.717Z,1003.96
2019-01-05T08:06:55.706Z,1004.00
2019-01-05T08:08:16.710Z,1003.97
2019-01-05T08:08:55.692Z,1003.98
2019-01-05T08:09:55.689Z,1003.97
2019-01-05T08:10:55.679Z,1003.92
2019-01-05T08:11:55.668Z,1003.92
2019-01-05T08:12:55.661Z,1003.97
2019-01-05T08:14:16.700Z,1003.90
2019-01-05T08:14:55.647Z,1004.02
2019-01-05T08:15:55.636Z,1003.97
2019-01-05T08:16:55.630Z,1004.02
2019-01-05T08:17:55.617Z,1004.04
2019-01-05T08:18:55.610Z,1004.03
2019-01-05T08:20:16.694Z,1004.01
2019-01-05T08:20:55.596Z,1004.04
2019-01-05T08:21:55.583Z,1004.02
2019-01-05T08:22:55.574Z,1004.02
2019-01-05T08:23:55.569Z,1004.10
2019-01-05T08:24:55.562Z,1004.11
2019-01-05T08:26:16.573Z,1004.15
2019-01-05T08:26:55.549Z,1004.10
2019-01-05T08:27:55.532Z,1004.15
2019-01-05T08:28:55.526Z,1004.16
2019-01-05T08:29:55.519Z,1004.13
2019-01-05T08:30:55.508Z,1004.13
2019-01-05T08:32:16.509Z,1004.09
2019-01-05T08:32:55.493Z,1004.08
2019-01-05T08:33:55.484Z,1004.11
2019-01-05T08:34:55.476Z,1004.07
2019-01-05T08:35:55.466Z,1004.10
2019-01-05T08:36:55.463Z,1004.07
2019-01-05T08:38:16.458Z,1004.08
2019-01-05T08:38:55.445Z,1004.05
2019-01-05T08:39:55.439Z,1004.00
2019-01-05T08:40:55.426Z,1003.97
2019-01-05T08:41:55.417Z,1004.00
2019-01-05T08:42:55.411Z,1004.01
2019-01-05T08:44:16.404Z,1004.03
2019-01-05T08:44:55.393Z,1004.08
2019-01-05T08:45:55.387Z,1004.08
2019-01-05T08:46:55.382Z,1004.08
2019-01-05T08:47:55.367Z,1004.04
2019-01-05T08:48:55.360Z,1004.05
2019-01-05T08:50:16.386Z,1004.08
2019-01-05T08:50:55.345Z,1004.04
2019-01-05T08:51:55.337Z,1004.06
2019-01-05T08:52:55.329Z,1004.06
2019-01-05T08:53:55.321Z,1004.09
2019-01-05T08:54:55.314Z,1004.03
2019-01-05T08:56:16.311Z,1004.07
2019-01-05T08:56:55.296Z,1004.09
2019-01-05T08:57:55.286Z,1004.03
2019-01-05T08:58:55.282Z,1004.13
2019-01-05T08:59:55.271Z,1004.15
2019-01-05T09:00:55.262Z,1004.10
2019-01-05T09:02:16.276Z,1004.14
2019-01-05T09:02:55.257Z,1004.12
2019-01-05T09:03:55.250Z,1004.12
2019-01-05T09:04:55.231Z,1004.07
2019-01-05T09:05:55.226Z,1004.12
2019-01-05T09:06:55.217Z,1004.14
2019-01-05T09:08:16.215Z,1004.13
2019-01-05T09:08:55.205Z,1004.10
2019-01-05T09:09:55.190Z,1004.07
2019-01-05T09:10:55.184Z,1004.05
2019-01-05T09:11:55.176Z,1004.08
2019-01-05T09:12:55.166Z,1004.11
2019-01-05T09:14:16.173Z,1004.08
2019-01-05T09:14:55.195Z,1004.08
2019-01-05T09:15:55.144Z,1004.12
2019-01-05T09:16:55.136Z,1004.15
2019-01-05T09:17:55.129Z,1004.17
2019-01-05T09:18:55.123Z,1004.21
2019-01-05T09:20:16.180Z,1004.23
2019-01-05T09:20:55.106Z,1004.21
2019-01-05T09:21:55.098Z,1004.23
2019-01-05T09:22:55.095Z,1004.24
2019-01-05T09:23:55.084Z,1004.20
2019-01-05T09:24:55.074Z,1004.24
2019-01-05T09:26:16.087Z,1004.26
2019-01-05T09:26:55.058Z,1004.31
2019-01-05T09:27:55.052Z,1004.27
2019-01-05T09:28:55.043Z,1004.34
2019-01-05T09:29:55.033Z,1004.33
2019-01-05T09:30:55.027Z,1004.33
2019-01-05T09:32:16.063Z,1004.36
2019-01-05T09:32:55.010Z,1004.36
2019-01-05T09:33:55.001Z,1004.34
2019-01-05T09:34:54.993Z,1004.35
2019-01-05T09:35:54.984Z,1004.28
2019-01-05T09:36:54.978Z,1004.32
2019-01-05T09:38:15.977Z,1004.30
2019-01-05T09:38:54.962Z,1004.32
2019-01-05T09:39:54.960Z,1004.36
2019-01-05T09:40:54.950Z,1004.35
2019-01-05T09:41:54.936Z,1004.34
2019-01-05T09:42:54.933Z,1004.39
2019-01-05T09:44:15.935Z,1004.37
2019-01-05T09:44:54.916Z,1004.34
2019-01-05T09:45:54.906Z,1004.37
2019-01-05T09:46:54.902Z,1004.40
2019-01-05T09:47:54.912Z,1004.36
2019-01-05T09:48:54.883Z,1004.37
2019-01-05T09:50:15.976Z,1004.38
2019-01-05T09:50:54.878Z,1004.39
2019-01-05T09:51:54.861Z,1004.40
2019-01-05T09:52:54.858Z,1004.41
2019-01-05T09:53:54.849Z,1004.40
2019-01-05T09:54:54.840Z,1004.39
2019-01-05T09:56:15.843Z,1004.38
2019-01-05T09:56:54.824Z,1004.37
2019-01-05T09:57:54.816Z,1004.37
2019-01-05T09:58:54.808Z,1004.40
2019-01-05T09:59:54.799Z,1004.34
2019-01-05T10:00:54.792Z,1004.31
2019-01-05T10:02:15.793Z,1004.30
2019-01-05T10:02:54.787Z,1004.27
2019-01-05T10:03:54.772Z,1004.26
2019-01-05T10:04:54.771Z,1004.28
2019-01-05T10:05:54.767Z,1004.30
2019-01-05T10:06:54.749Z,1004.32
2019-01-05T10:08:15.748Z,1004.32
2019-01-05T10:08:54.734Z,1004.34
2019-01-05T10:09:54.725Z,1004.34
2019-01-05T10:10:54.719Z,1004.34
2019-01-05T10:11:54.716Z,1004.36
2019-01-05T10:12:54.709Z,1004.33
2019-01-05T10:14:15.703Z,1004.35
2019-01-05T10:14:54.691Z,1004.34
2019-01-05T10:15:54.683Z,1004.35
2019-01-05T10:16:54.679Z,1004.33
2019-01-05T10:17:54.667Z,1004.37
2019-01-05T10:18:54.662Z,1004.41
2019-01-05T10:20:15.773Z,1004.40
2019-01-05T10:20:54.648Z,1004.42
2019-01-05T10:21:54.640Z,1004.38
2019-01-05T10:22:54.666Z,1004.38
2019-01-05T10:23:54.641Z,1004.39
2019-01-05T10:24:54.618Z,1004.38
2019-01-05T10:26:15.616Z,1004.39
2019-01-05T10:26:54.606Z,1004.36
2019-01-05T10:27:54.608Z,1004.35
2019-01-05T10:28:54.592Z,1004.36
2019-01-05T10:29:54.581Z,1004.41
2019-01-05T10:30:54.575Z,1004.38
2019-01-05T10:32:15.575Z,1004.36
2019-01-05T10:32:54.563Z,1004.31
2019-01-05T10:33:54.552Z,1004.29
2019-01-05T10:34:54.546Z,1004.34
2019-01-05T10:35:54.545Z,1004.30
2019-01-05T10:36:54.530Z,1004.30
2019-01-05T10:38:15.539Z,1004.29
2019-01-05T10:38:54.518Z,1004.32
2019-01-05T10:39:54.514Z,1004.33
2019-01-05T10:40:54.507Z,1004.32
2019-01-05T10:41:54.499Z,1004.32
2019-01-05T10:42:54.490Z,1004.29
2019-01-05T10:44:15.489Z,1004.34
2019-01-05T10:44:54.477Z,1004.27
2019-01-05T10:45:54.478Z,1004.26
2019-01-05T10:46:54.463Z,1004.23
2019-01-05T10:47:54.454Z,1004.28
2019-01-05T10:48:54.447Z,1004.31
2019-01-05T10:50:15.462Z,1004.32
2019-01-05T10:50:54.442Z,1004.30
2019-01-05T10:51:54.493Z,1004.29
2019-01-05T10:52:54.431Z,1004.29
2019-01-05T10:53:54.419Z,1004.32
2019-01-05T10:54:54.404Z,1004.28
2019-01-05T10:56:15.403Z,1004.30
2019-01-05T10:56:54.388Z,1004.28
2019-01-05T10:57:54.384Z,1004.25
2019-01-05T10:58:54.382Z,1004.27
2019-01-05T10:59:54.372Z,1004.30
2019-01-05T11:00:54.362Z,1004.28
2019-01-05T11:02:15.359Z,1004.27
2019-01-05T11:02:54.347Z,1004.30
2019-01-05T11:03:54.338Z,1004.31
2019-01-05T11:04:54.397Z,1004.29
2019-01-05T11:05:54.329Z,1004.35
2019-01-05T11:06:54.329Z,1004.35
2019-01-05T11:08:15.318Z,1004.36
2019-01-05T11:08:54.304Z,1004.33
2019-01-05T11:09:54.302Z,1004.32
2019-01-05T11:10:54.294Z,1004.37
2019-01-05T11:11:54.287Z,1004.40
2019-01-05T11:12:54.288Z,1004.35
2019-01-05T11:14:15.297Z,1004.37
2019-01-05T11:14:54.280Z,1004.33
2019-01-05T11:15:54.262Z,1004.32
2019-01-05T11:16:54.258Z,1004.30
2019-01-05T11:17:54.248Z,1004.26
2019-01-05T11:18:54.250Z,1004.26
2019-01-05T11:20:15.258Z,1004.26
2019-01-05T11:20:54.223Z,1004.25
2019-01-05T11:21:54.218Z,1004.26
2019-01-05T11:22:54.216Z,1004.27
2019-01-05T11:23:54.204Z,1004.24
2019-01-05T11:24:54.198Z,1004.36
2019-01-05T11:26:15.200Z,1004.37
2019-01-05T11:26:54.189Z,1004.35
2019-01-05T11:27:54.182Z,1004.41
2019-01-05T11:28:54.179Z,1004.42
2019-01-05T11:29:54.164Z,1004.46
2019-01-05T11:30:54.165Z,1004.44
2019-01-05T11:32:15.158Z,1004.43
2019-01-05T11:32:54.143Z,1004.44
2019-01-05T11:33:54.140Z,1004.48
2019-01-05T11:34:54.131Z,1004.49
2019-01-05T11:35:54.123Z,1004.48
2019-01-05T11:36:54.127Z,1004.47
2019-01-05T11:38:15.119Z,1004.48
2019-01-05T11:38:54.107Z,1004.50
2019-01-05T11:39:54.097Z,1004.51
2019-01-05T11:40:54.127Z,1004.52
2019-01-05T11:41:54.087Z,1004.47
2019-01-05T11:42:54.078Z,1004.49
2019-01-05T11:44:15.078Z,1004.48
2019-01-05T11:44:54.065Z,1004.46
2019-01-05T11:45:54.060Z,1004.47
2019-01-05T11:46:54.049Z,1004.48
2019-01-05T11:47:54.047Z,1004.49
2019-01-05T11:48:54.040Z,1004.51
2019-01-05T11:50:15.052Z,1004.52
2019-01-05T11:50:54.034Z,1004.47
2019-01-05T11:51:54.030Z,1004.46
2019-01-05T11:52:54.008Z,1004.50
2019-01-05T11:53:54.004Z,1004.48
2019-01-05T11:54:54.019Z,1004.53
2019-01-05T11:56:15.000Z,1004.52
2019-01-05T11:56:53.986Z,1004.49
2019-01-05T11:57:53.976Z,1004.49
2019-01-05T11:58:53.994Z,1004.48
2019-01-05T11:59:53.969Z,1004.49
2019-01-05T12:00:53.963Z,1004.49
2019-01-05T12:02:19.587Z,1004.43
2019-01-05T12:02:53.944Z,1004.40
2019-01-05T12:03:53.936Z,1004.40
2019-01-05T12:04:53.938Z,1004.41
2019-01-05T12:05:53.929Z,1004.37